sensor_id;sensor_type;location;lat;lon;timestamp;pressure;altitude;pressure_sealevel;temperature;humidity
64679;BME280;51094;53.864;27.676;2023-02-01T00:01:58;97780.50;;;-0.36;79.50
64679;BME280;51094;53.864;27.676;2023-02-01T00:04:25;97929.41;;;0.51;79.46
64679;BME280;51094;53.864;27.676;2023-02-01T00:06:52;97836.75;;;-0.03;79.34
64679;BME280;51094;53.864;27.676;2023-02-01T00:09:18;97597.22;;;-1.47;79.14
64679;BME280;51094;53.864;27.676;2023-02-01T00:11:45;97918.03;;;0.56;79.44
64679;BME280;51094;53.864;27.676;2023-02-01T00:14:13;97861.88;;;0.22;79.62
64679;BME280;51094;53.864;27.676;2023-02-01T00:16:41;97913.69;;;0.58;80.28
64679;BME280;51094;53.864;27.676;2023-02-01T00:19:13;97795.13;;;-0.22;79.78
64679;BME280;51094;53.864;27.676;2023-02-01T00:21:41;97858.13;;;0.12;79.57
64679;BME280;51094;53.864;27.676;2023-02-01T00:24:09;97753.34;;;-0.54;79.67
64679;BME280;51094;53.864;27.676;2023-02-01T00:26:38;97842.34;;;0.04;80.03
64679;BME280;51094;53.864;27.676;2023-02-01T00:29:10;97915.19;;;0.45;79.94
64679;BME280;51094;53.864;27.676;2023-02-01T00:31:38;97875.28;;;0.10;80.15
64679;BME280;51094;53.864;27.676;2023-02-01T00:34:05;97853.22;;;-0.09;80.80
64679;BME280;51094;53.864;27.676;2023-02-01T00:36:32;97750.47;;;-0.83;80.91
64679;BME280;51094;53.864;27.676;2023-02-01T00:38:59;97903.16;;;0.31;81.07
64679;BME280;51094;53.864;27.676;2023-02-01T00:41:26;97751.03;;;-0.59;81.21
64679;BME280;51094;53.864;27.676;2023-02-01T00:43:53;97852.28;;;0.10;80.91
64679;BME280;51094;53.864;27.676;2023-02-01T00:46:29;97881.63;;;0.36;80.74
64679;BME280;51094;53.864;27.676;2023-02-01T00:48:56;97879.16;;;0.34;80.99
64679;BME280;51094;53.864;27.676;2023-02-01T00:51:44;97827.03;;;0.04;81.08
64679;BME280;51094;53.864;27.676;2023-02-01T00:54:12;97872.31;;;0.35;80.58
64679;BME280;51094;53.864;27.676;2023-02-01T00:56:43;97861.84;;;0.39;80.87
64679;BME280;51094;53.864;27.676;2023-02-01T00:59:28;97863.66;;;0.37;81.26
64679;BME280;51094;53.864;27.676;2023-02-01T01:01:56;97806.56;;;0.04;80.80
64679;BME280;51094;53.864;27.676;2023-02-01T01:04:22;97857.56;;;0.40;80.47
64679;BME280;51094;53.864;27.676;2023-02-01T01:06:49;97829.63;;;0.19;80.80
64679;BME280;51094;53.864;27.676;2023-02-01T01:09:16;97754.66;;;-0.30;80.49
64679;BME280;51094;53.864;27.676;2023-02-01T01:11:43;97750.28;;;-0.28;80.88
64679;BME280;51094;53.864;27.676;2023-02-01T01:14:10;97738.81;;;-0.37;80.63
64679;BME280;51094;53.864;27.676;2023-02-01T01:16:37;97851.88;;;0.17;80.62
64679;BME280;51094;53.864;27.676;2023-02-01T01:19:04;97822.06;;;0.00;80.76
64679;BME280;51094;53.864;27.676;2023-02-01T01:21:32;97702.28;;;-0.72;80.92
64679;BME280;51094;53.864;27.676;2023-02-01T01:23:59;97834.38;;;0.10;81.29
64679;BME280;51094;53.864;27.676;2023-02-01T01:26:27;97831.75;;;0.11;81.23
64679;BME280;51094;53.864;27.676;2023-02-01T01:28:55;97831.50;;;0.16;81.54
64679;BME280;51094;53.864;27.676;2023-02-01T01:31:23;97844.28;;;0.16;81.31
64679;BME280;51094;53.864;27.676;2023-02-01T01:33:52;97822.34;;;0.12;81.35
64679;BME280;51094;53.864;27.676;2023-02-01T01:36:20;97824.81;;;0.13;81.37
64679;BME280;51094;53.864;27.676;2023-02-01T01:38:47;97694.47;;;-0.69;81.07
64679;BME280;51094;53.864;27.676;2023-02-01T01:41:23;97761.09;;;-0.23;81.16
64679;BME280;51094;53.864;27.676;2023-02-01T01:44:03;97787.91;;;-0.14;80.78
64679;BME280;51094;53.864;27.676;2023-02-01T01:46:37;97805.09;;;-0.01;81.18
64679;BME280;51094;53.864;27.676;2023-02-01T01:49:11;97608.09;;;-1.26;81.00
64679;BME280;51094;53.864;27.676;2023-02-01T01:51:44;97805.41;;;-0.07;80.93
64679;BME280;51094;53.864;27.676;2023-02-01T01:54:18;97479.53;;;-2.07;81.06
64679;BME280;51094;53.864;27.676;2023-02-01T01:56:52;97710.25;;;-0.60;81.69
64679;BME280;51094;53.864;27.676;2023-02-01T01:59:21;97713.53;;;-0.58;81.06
64679;BME280;51094;53.864;27.676;2023-02-01T02:01:48;97740.44;;;-0.51;81.42
64679;BME280;51094;53.864;27.676;2023-02-01T02:04:16;97661.59;;;-0.75;81.06
64679;BME280;51094;53.864;27.676;2023-02-01T02:06:48;97785.81;;;-0.23;81.04
64679;BME280;51094;53.864;27.676;2023-02-01T02:09:16;97772.34;;;-0.10;80.74
64679;BME280;51094;53.864;27.676;2023-02-01T02:11:43;97735.59;;;-0.40;81.39
64679;BME280;51094;53.864;27.676;2023-02-01T02:14:13;97755.16;;;-0.56;81.65
64679;BME280;51094;53.864;27.676;2023-02-01T02:17:07;97766.16;;;-0.39;81.48
64679;BME280;51094;53.864;27.676;2023-02-01T02:39:08;97711.28;;;-0.47;82.47
64679;BME280;51094;53.864;27.676;2023-02-01T02:41:47;97743.53;;;-0.29;81.65
64679;BME280;51094;53.864;27.676;2023-02-01T02:44:35;97736.34;;;-0.38;81.51
64679;BME280;51094;53.864;27.676;2023-02-01T02:47:38;97626.16;;;-1.14;81.53
64679;BME280;51094;53.864;27.676;2023-02-01T02:50:16;97678.47;;;-0.88;82.06
64679;BME280;51094;53.864;27.676;2023-02-01T02:56:29;97730.81;;;-0.46;82.12
64679;BME280;51094;53.864;27.676;2023-02-01T02:59:17;97750.97;;;-0.42;81.77
64679;BME280;51094;53.864;27.676;2023-02-01T03:02:06;97631.19;;;-0.95;82.19
64679;BME280;51094;53.864;27.676;2023-02-01T03:04:54;97656.41;;;-1.06;81.71
64679;BME280;51094;53.864;27.676;2023-02-01T03:13:14;97708.59;;;-0.28;81.25
64679;BME280;51094;53.864;27.676;2023-02-01T03:15:56;97710.47;;;-0.32;81.43
64679;BME280;51094;53.864;27.676;2023-02-01T03:18:33;97610.53;;;-0.90;81.24
64679;BME280;51094;53.864;27.676;2023-02-01T03:21:08;97652.41;;;-0.94;81.45
64679;BME280;51094;53.864;27.676;2023-02-01T03:23:36;97654.03;;;-0.76;81.02
64679;BME280;51094;53.864;27.676;2023-02-01T03:26:10;97705.00;;;-0.57;81.18
64679;BME280;51094;53.864;27.676;2023-02-01T03:28:43;97523.06;;;-1.43;81.13
64679;BME280;51094;53.864;27.676;2023-02-01T03:31:11;97563.81;;;-1.25;80.64
64679;BME280;51094;53.864;27.676;2023-02-01T03:33:41;97467.72;;;-1.74;81.00
64679;BME280;51094;53.864;27.676;2023-02-01T03:39:07;97686.75;;;-0.34;81.04
64679;BME280;51094;53.864;27.676;2023-02-01T03:41:41;97614.47;;;-0.85;81.12
64679;BME280;51094;53.864;27.676;2023-02-01T03:49:33;97537.66;;;-1.29;80.72
64679;BME280;51094;53.864;27.676;2023-02-01T03:52:05;97637.00;;;-0.76;81.17
64679;BME280;51094;53.864;27.676;2023-02-01T03:54:34;97636.25;;;-0.78;80.98
64679;BME280;51094;53.864;27.676;2023-02-01T03:57:08;97642.69;;;-0.71;81.46
64679;BME280;51094;53.864;27.676;2023-02-01T03:59:44;97663.47;;;-0.61;80.99
64679;BME280;51094;53.864;27.676;2023-02-01T04:02:11;97408.69;;;-2.33;81.24
64679;BME280;51094;53.864;27.676;2023-02-01T04:04:42;97657.53;;;-0.61;81.22
64679;BME280;51094;53.864;27.676;2023-02-01T04:07:12;97517.81;;;-1.57;81.15
64679;BME280;51094;53.864;27.676;2023-02-01T04:09:39;97502.69;;;-1.60;81.26
64679;BME280;51094;53.864;27.676;2023-02-01T04:12:06;97658.59;;;-0.65;81.61
64679;BME280;51094;53.864;27.676;2023-02-01T04:14:33;97656.47;;;-0.57;81.39
64679;BME280;51094;53.864;27.676;2023-02-01T04:17:00;97653.09;;;-0.58;81.06
64679;BME280;51094;53.864;27.676;2023-02-01T04:19:27;97587.53;;;-1.06;81.05
64679;BME280;51094;53.864;27.676;2023-02-01T04:21:53;97610.63;;;-0.76;81.27
64679;BME280;51094;53.864;27.676;2023-02-01T04:24:20;97640.78;;;-0.50;81.13
64679;BME280;51094;53.864;27.676;2023-02-01T04:26:47;97644.00;;;-0.46;80.98
64679;BME280;51094;53.864;27.676;2023-02-01T04:29:14;97579.41;;;-0.97;80.72
64679;BME280;51094;53.864;27.676;2023-02-01T04:31:40;97482.19;;;-1.41;80.96
64679;BME280;51094;53.864;27.676;2023-02-01T04:34:07;97640.09;;;-0.38;81.13
64679;BME280;51094;53.864;27.676;2023-02-01T04:36:34;97471.94;;;-1.40;80.75
64679;BME280;51094;53.864;27.676;2023-02-01T04:39:01;97548.13;;;-0.85;80.90
64679;BME280;51094;53.864;27.676;2023-02-01T04:41:27;97562.63;;;-0.85;80.50
64679;BME280;51094;53.864;27.676;2023-02-01T04:43:55;97607.00;;;-0.55;80.60
64679;BME280;51094;53.864;27.676;2023-02-01T04:46:22;97580.03;;;-0.60;80.67
64679;BME280;51094;53.864;27.676;2023-02-01T04:48:49;97536.84;;;-0.96;80.13
64679;BME280;51094;53.864;27.676;2023-02-01T04:51:16;97543.53;;;-0.94;79.56
64679;BME280;51094;53.864;27.676;2023-02-01T04:53:44;97593.91;;;-0.49;80.09
64679;BME280;51094;53.864;27.676;2023-02-01T04:56:11;97552.75;;;-0.76;79.74
64679;BME280;51094;53.864;27.676;2023-02-01T04:58:38;97513.66;;;-0.92;80.03
64679;BME280;51094;53.864;27.676;2023-02-01T05:01:06;97518.34;;;-0.84;80.14
64679;BME280;51094;53.864;27.676;2023-02-01T05:03:33;97578.34;;;-0.44;79.29
64679;BME280;51094;53.864;27.676;2023-02-01T05:06:00;97620.69;;;-0.24;79.38
64679;BME280;51094;53.864;27.676;2023-02-01T05:08:27;97580.91;;;-0.44;79.51
64679;BME280;51094;53.864;27.676;2023-02-01T05:10:55;97601.91;;;-0.23;79.69
64679;BME280;51094;53.864;27.676;2023-02-01T05:13:22;97593.66;;;-0.28;79.14
64679;BME280;51094;53.864;27.676;2023-02-01T05:16:07;97494.31;;;-0.96;79.30
64679;BME280;51094;53.864;27.676;2023-02-01T05:18:34;97606.19;;;-0.24;79.75
64679;BME280;51094;53.864;27.676;2023-02-01T05:21:01;97482.22;;;-0.92;79.80
64679;BME280;51094;53.864;27.676;2023-02-01T05:23:28;97435.69;;;-1.13;79.59
64679;BME280;51094;53.864;27.676;2023-02-01T05:25:59;97248.09;;;-2.29;79.45
64679;BME280;51094;53.864;27.676;2023-02-01T05:28:28;97611.81;;;-0.02;79.38
64679;BME280;51094;53.864;27.676;2023-02-01T05:30:55;97598.94;;;0.00;79.16
64679;BME280;51094;53.864;27.676;2023-02-01T05:33:22;97601.66;;;-0.03;79.11
64679;BME280;51094;53.864;27.676;2023-02-01T05:35:48;97533.28;;;-0.45;79.22
64679;BME280;51094;53.864;27.676;2023-02-01T05:38:17;97603.56;;;-0.07;79.20
64679;BME280;51094;53.864;27.676;2023-02-01T05:40:43;97542.47;;;-0.43;79.65
64679;BME280;51094;53.864;27.676;2023-02-01T05:43:16;97593.91;;;-0.17;80.09
64679;BME280;51094;53.864;27.676;2023-02-01T05:45:42;97590.78;;;-0.22;80.26
64679;BME280;51094;53.864;27.676;2023-02-01T05:48:09;97606.25;;;-0.25;80.94
64679;BME280;51094;53.864;27.676;2023-02-01T05:50:36;97549.09;;;-0.54;81.83
64679;BME280;51094;53.864;27.676;2023-02-01T05:53:07;97589.53;;;-0.31;82.11
64679;BME280;51094;53.864;27.676;2023-02-01T05:55:34;97586.16;;;-0.31;82.20
64679;BME280;51094;53.864;27.676;2023-02-01T05:58:03;97544.47;;;-0.63;83.56
64679;BME280;51094;53.864;27.676;2023-02-01T06:00:30;97498.28;;;-0.90;83.81
64679;BME280;51094;53.864;27.676;2023-02-01T06:02:58;97583.09;;;-0.38;84.42
64679;BME280;51094;53.864;27.676;2023-02-01T06:05:25;97584.09;;;-0.41;85.23
64679;BME280;51094;53.864;27.676;2023-02-01T06:07:52;97429.03;;;-1.31;85.58
64679;BME280;51094;53.864;27.676;2023-02-01T06:10:20;97423.50;;;-1.40;85.71
64679;BME280;51094;53.864;27.676;2023-02-01T06:12:48;97536.81;;;-0.63;85.96
64679;BME280;51094;53.864;27.676;2023-02-01T06:15:15;97575.19;;;-0.34;86.01
64679;BME280;51094;53.864;27.676;2023-02-01T06:17:45;97293.69;;;-2.09;85.89
64679;BME280;51094;53.864;27.676;2023-02-01T06:20:14;97569.94;;;-0.30;86.21
64679;BME280;51094;53.864;27.676;2023-02-01T06:22:41;97329.50;;;-1.94;85.93
64679;BME280;51094;53.864;27.676;2023-02-01T06:25:09;97490.75;;;-0.78;86.10
64679;BME280;51094;53.864;27.676;2023-02-01T06:27:36;97580.47;;;-0.21;86.13
64679;BME280;51094;53.864;27.676;2023-02-01T06:30:05;97516.81;;;-0.55;86.68
64679;BME280;51094;53.864;27.676;2023-02-01T06:32:33;97410.75;;;-1.24;85.60
64679;BME280;51094;53.864;27.676;2023-02-01T06:35:00;97527.44;;;-0.47;85.56
64679;BME280;51094;53.864;27.676;2023-02-01T06:37:27;97573.38;;;-0.16;85.69
64679;BME280;51094;53.864;27.676;2023-02-01T06:39:55;97493.50;;;-0.65;85.49
64679;BME280;51094;53.864;27.676;2023-02-01T06:42:22;97434.31;;;-1.03;85.79
64679;BME280;51094;53.864;27.676;2023-02-01T06:44:52;97567.63;;;-0.04;85.62
64679;BME280;51094;53.864;27.676;2023-02-01T06:47:20;97436.22;;;-0.91;84.95
64679;BME280;51094;53.864;27.676;2023-02-01T06:49:46;97526.44;;;-0.29;84.84
64679;BME280;51094;53.864;27.676;2023-02-01T06:52:13;97442.13;;;-0.90;84.50
64679;BME280;51094;53.864;27.676;2023-02-01T06:54:40;97561.03;;;-0.08;84.79
64679;BME280;51094;53.864;27.676;2023-02-01T06:57:07;97587.66;;;-0.12;84.56
64679;BME280;51094;53.864;27.676;2023-02-01T06:59:33;97567.63;;;-0.04;84.96
64679;BME280;51094;53.864;27.676;2023-02-01T07:02:00;97477.69;;;-0.72;84.76
64679;BME280;51094;53.864;27.676;2023-02-01T07:04:27;97514.31;;;-0.41;84.70
64679;BME280;51094;53.864;27.676;2023-02-01T07:06:54;97573.88;;;-0.09;84.32
64679;BME280;51094;53.864;27.676;2023-02-01T07:09:20;97573.31;;;-0.14;84.68
64679;BME280;51094;53.864;27.676;2023-02-01T07:11:47;97533.34;;;-0.31;84.63
64679;BME280;51094;53.864;27.676;2023-02-01T07:14:14;97513.56;;;-0.43;84.64
64679;BME280;51094;53.864;27.676;2023-02-01T07:16:41;97531.03;;;-0.20;84.71
64679;BME280;51094;53.864;27.676;2023-02-01T07:19:08;97559.94;;;-0.04;84.50
64679;BME280;51094;53.864;27.676;2023-02-01T07:21:34;97557.22;;;-0.01;83.91
64679;BME280;51094;53.864;27.676;2023-02-01T07:24:01;97565.81;;;-0.02;84.15
64679;BME280;51094;53.864;27.676;2023-02-01T07:26:28;97384.09;;;-1.18;84.05
64679;BME280;51094;53.864;27.676;2023-02-01T07:28:55;97460.06;;;-0.60;84.43
64679;BME280;51094;53.864;27.676;2023-02-01T07:31:22;97549.28;;;0.04;84.94
64679;BME280;51094;53.864;27.676;2023-02-01T07:33:49;97562.63;;;0.09;84.94
64679;BME280;51094;53.864;27.676;2023-02-01T07:36:19;97477.91;;;-0.29;84.85
64679;BME280;51094;53.864;27.676;2023-02-01T07:38:46;97520.81;;;-0.04;84.86
64679;BME280;51094;53.864;27.676;2023-02-01T07:41:14;97519.81;;;-0.17;84.99
64679;BME280;51094;53.864;27.676;2023-02-01T07:43:41;97476.00;;;-0.25;85.69
64679;BME280;51094;53.864;27.676;2023-02-01T07:46:09;97541.34;;;0.24;85.81
64679;BME280;51094;53.864;27.676;2023-02-01T07:48:36;97483.97;;;-0.16;85.72
64679;BME280;51094;53.864;27.676;2023-02-01T07:51:14;97375.59;;;-0.72;85.24
64679;BME280;51094;53.864;27.676;2023-02-01T07:53:42;97382.25;;;-0.85;85.62
64679;BME280;51094;53.864;27.676;2023-02-01T07:56:20;97538.56;;;0.13;85.84
64679;BME280;51094;53.864;27.676;2023-02-01T07:58:50;97535.91;;;0.15;86.54
64679;BME280;51094;53.864;27.676;2023-02-01T08:01:19;97536.56;;;0.18;86.53
64679;BME280;51094;53.864;27.676;2023-02-01T08:03:48;97533.66;;;0.24;86.59
64679;BME280;51094;53.864;27.676;2023-02-01T08:06:15;97504.75;;;0.08;87.19
64679;BME280;51094;53.864;27.676;2023-02-01T08:08:42;97530.84;;;0.29;86.27
64679;BME280;51094;53.864;27.676;2023-02-01T08:11:11;97532.41;;;0.31;86.82
64679;BME280;51094;53.864;27.676;2023-02-01T08:13:38;97467.22;;;-0.06;86.69
64679;BME280;51094;53.864;27.676;2023-02-01T08:16:07;97499.78;;;0.21;87.07
64679;BME280;51094;53.864;27.676;2023-02-01T08:18:36;97530.91;;;0.43;87.17
64679;BME280;51094;53.864;27.676;2023-02-01T08:21:10;97525.22;;;0.38;86.63
64679;BME280;51094;53.864;27.676;2023-02-01T08:23:38;97232.13;;;-1.37;87.20
64679;BME280;51094;53.864;27.676;2023-02-01T08:26:23;97381.91;;;-0.47;86.95
64679;BME280;51094;53.864;27.676;2023-02-01T08:29:02;97473.53;;;0.33;86.82
64679;BME280;51094;53.864;27.676;2023-02-01T08:31:30;97514.84;;;0.70;86.84
64679;BME280;51094;53.864;27.676;2023-02-01T08:34:00;97541.66;;;0.78;86.04
64679;BME280;51094;53.864;27.676;2023-02-01T08:36:28;97519.44;;;0.79;86.25
64679;BME280;51094;53.864;27.676;2023-02-01T08:38:56;97517.63;;;0.81;86.22
64679;BME280;51094;53.864;27.676;2023-02-01T08:41:25;97514.88;;;0.84;85.74
64679;BME280;51094;53.864;27.676;2023-02-01T08:43:52;97513.06;;;0.86;85.16
64679;BME280;51094;53.864;27.676;2023-02-01T08:46:21;97453.00;;;0.35;85.56
64679;BME280;51094;53.864;27.676;2023-02-01T08:48:49;97513.59;;;0.77;85.89
64679;BME280;51094;53.864;27.676;2023-02-01T08:51:18;97514.69;;;0.73;85.30
64679;BME280;51094;53.864;27.676;2023-02-01T08:53:45;97473.19;;;0.53;85.59
64679;BME280;51094;53.864;27.676;2023-02-01T08:56:14;97473.56;;;0.61;85.53
64679;BME280;51094;53.864;27.676;2023-02-01T08:58:41;97511.56;;;0.68;85.88
64679;BME280;51094;53.864;27.676;2023-02-01T09:01:10;97498.78;;;0.82;85.67
64679;BME280;51094;53.864;27.676;2023-02-01T09:03:39;97484.22;;;0.54;85.28
64679;BME280;51094;53.864;27.676;2023-02-01T09:06:09;97135.75;;;-1.46;85.54
64679;BME280;51094;53.864;27.676;2023-02-01T09:08:37;97498.41;;;0.88;85.70
64679;BME280;51094;53.864;27.676;2023-02-01T09:11:07;97503.44;;;0.89;84.82
64679;BME280;51094;53.864;27.676;2023-02-01T09:13:35;97417.19;;;0.49;85.24
64679;BME280;51094;53.864;27.676;2023-02-01T09:16:03;97488.72;;;1.07;86.01
64679;BME280;51094;53.864;27.676;2023-02-01T09:18:30;97491.28;;;1.07;85.95
64679;BME280;51094;53.864;27.676;2023-02-01T09:20:59;97417.28;;;0.47;84.86
64679;BME280;51094;53.864;27.676;2023-02-01T09:23:26;97508.66;;;1.02;83.68
64679;BME280;51094;53.864;27.676;2023-02-01T09:25:54;97484.59;;;1.05;85.38
64679;BME280;51094;53.864;27.676;2023-02-01T09:28:20;97507.63;;;1.05;85.39
64679;BME280;51094;53.864;27.676;2023-02-01T09:30:47;97486.34;;;1.04;84.69
64679;BME280;51094;53.864;27.676;2023-02-01T09:33:14;97485.78;;;0.99;84.99
64679;BME280;51094;53.864;27.676;2023-02-01T09:35:41;97441.94;;;0.77;85.28
64679;BME280;51094;53.864;27.676;2023-02-01T09:38:07;97491.81;;;0.98;84.75
64679;BME280;51094;53.864;27.676;2023-02-01T09:40:34;97489.63;;;0.92;84.87
64679;BME280;51094;53.864;27.676;2023-02-01T09:46:22;97484.69;;;0.89;84.50
64679;BME280;51094;53.864;27.676;2023-02-01T09:48:43;97448.72;;;0.78;84.90
64679;BME280;51094;53.864;27.676;2023-02-01T09:51:16;97455.09;;;0.99;84.61
64679;BME280;51094;53.864;27.676;2023-02-01T09:53:48;97540.28;;;1.15;84.25
64679;BME280;51094;53.864;27.676;2023-02-01T09:56:26;97480.78;;;1.39;83.97
64679;BME280;51094;53.864;27.676;2023-02-01T09:59:23;97504.94;;;1.34;83.44
64679;BME280;51094;53.864;27.676;2023-02-01T10:01:53;97389.28;;;0.87;84.21
64679;BME280;51094;53.864;27.676;2023-02-01T10:04:20;97450.44;;;1.32;84.08
64679;BME280;51094;53.864;27.676;2023-02-01T10:07:21;97475.28;;;1.45;83.26
64679;BME280;51094;53.864;27.676;2023-02-01T10:12:51;97474.56;;;1.43;83.67
64679;BME280;51094;53.864;27.676;2023-02-01T10:21:07;97476.03;;;1.32;83.76
64679;BME280;51094;53.864;27.676;2023-02-01T10:23:51;97483.91;;;1.44;83.72
64679;BME280;51094;53.864;27.676;2023-02-01T10:26:39;97240.56;;;-0.04;83.43
64679;BME280;51094;53.864;27.676;2023-02-01T10:29:18;97385.72;;;0.89;83.44
64679;BME280;51094;53.864;27.676;2023-02-01T10:31:46;97471.28;;;1.41;83.09
64679;BME280;51094;53.864;27.676;2023-02-01T10:34:24;97464.16;;;1.31;83.68
64679;BME280;51094;53.864;27.676;2023-02-01T10:36:58;97394.13;;;0.91;84.19
64679;BME280;51094;53.864;27.676;2023-02-01T10:39:26;97472.56;;;1.33;84.42
64679;BME280;51094;53.864;27.676;2023-02-01T10:41:54;97472.91;;;1.15;84.34
64679;BME280;51094;53.864;27.676;2023-02-01T10:44:28;97381.00;;;0.69;84.33
64679;BME280;51094;53.864;27.676;2023-02-01T10:46:56;97459.75;;;1.33;84.72
64679;BME280;51094;53.864;27.676;2023-02-01T10:49:35;97477.84;;;1.45;84.90
64679;BME280;51094;53.864;27.676;2023-02-01T10:52:38;97495.59;;;1.48;84.80
64679;BME280;51094;53.864;27.676;2023-02-01T10:58:02;97429.44;;;1.27;83.56
64679;BME280;51094;53.864;27.676;2023-02-01T11:00:49;97448.03;;;1.44;84.82
64679;BME280;51094;53.864;27.676;2023-02-01T11:03:59;97456.25;;;1.22;84.84
64679;BME280;51094;53.864;27.676;2023-02-01T11:06:28;97448.28;;;1.53;85.10
64679;BME280;51094;53.864;27.676;2023-02-01T11:08:58;97376.28;;;1.04;83.91
64679;BME280;51094;53.864;27.676;2023-02-01T11:11:26;97442.53;;;1.50;84.29
64679;BME280;51094;53.864;27.676;2023-02-01T11:13:59;97338.94;;;0.87;83.87
64679;BME280;51094;53.864;27.676;2023-02-01T11:16:38;97416.44;;;1.57;84.66
64679;BME280;51094;53.864;27.676;2023-02-01T11:19:05;97336.94;;;1.19;84.08
64679;BME280;51094;53.864;27.676;2023-02-01T11:21:34;97371.75;;;1.22;83.69
64679;BME280;51094;53.864;27.676;2023-02-01T11:24:04;97418.19;;;1.57;83.82
64679;BME280;51094;53.864;27.676;2023-02-01T11:26:33;97432.97;;;1.66;83.73
64679;BME280;51094;53.864;27.676;2023-02-01T11:29:08;97437.47;;;1.62;84.08
64679;BME280;51094;53.864;27.676;2023-02-01T11:31:37;97399.66;;;1.39;84.14
64679;BME280;51094;53.864;27.676;2023-02-01T11:34:25;97432.78;;;1.69;84.10
64679;BME280;51094;53.864;27.676;2023-02-01T11:36:54;97441.78;;;1.62;83.62
64679;BME280;51094;53.864;27.676;2023-02-01T11:39:26;97426.94;;;1.67;83.41
64679;BME280;51094;53.864;27.676;2023-02-01T11:44:41;97423.44;;;1.68;84.00
64679;BME280;51094;53.864;27.676;2023-02-01T11:49:50;97388.69;;;1.64;83.60
64679;BME280;51094;53.864;27.676;2023-02-01T11:52:24;97432.25;;;2.04;83.47
64679;BME280;51094;53.864;27.676;2023-02-01T11:55:15;97431.03;;;2.09;83.48
64679;BME280;51094;53.864;27.676;2023-02-01T12:00:57;97426.50;;;2.00;83.02
64679;BME280;51094;53.864;27.676;2023-02-01T12:03:52;97433.06;;;2.04;83.33
64679;BME280;51094;53.864;27.676;2023-02-01T12:09:38;97426.72;;;2.10;83.05
64679;BME280;51094;53.864;27.676;2023-02-01T12:12:19;97395.19;;;1.82;82.64
64679;BME280;51094;53.864;27.676;2023-02-01T12:17:41;97422.22;;;2.13;82.90
64679;BME280;51094;53.864;27.676;2023-02-01T12:22:50;97427.72;;;2.20;81.86
64679;BME280;51094;53.864;27.676;2023-02-01T12:36:50;97415.41;;;1.99;82.16
64679;BME280;51094;53.864;27.676;2023-02-01T12:44:49;97452.72;;;1.91;82.78
64679;BME280;51094;53.864;27.676;2023-02-01T12:50:00;97444.25;;;1.76;83.32
64679;BME280;51094;53.864;27.676;2023-02-01T12:52:39;97347.22;;;1.45;83.24
64679;BME280;51094;53.864;27.676;2023-02-01T12:55:17;97416.63;;;1.94;83.40
64679;BME280;51094;53.864;27.676;2023-02-01T13:00:47;97427.50;;;1.97;83.52
64679;BME280;51094;53.864;27.676;2023-02-01T13:03:33;97279.69;;;1.20;82.58
64679;BME280;51094;53.864;27.676;2023-02-01T13:06:07;97379.78;;;1.82;82.71
64679;BME280;51094;53.864;27.676;2023-02-01T13:09:04;97368.81;;;1.67;82.96
64679;BME280;51094;53.864;27.676;2023-02-01T13:11:34;97451.88;;;1.90;83.32
64679;BME280;51094;53.864;27.676;2023-02-01T13:16:47;97401.59;;;1.75;83.84
64679;BME280;51094;53.864;27.676;2023-02-01T13:19:30;97425.81;;;1.84;83.64
64679;BME280;51094;53.864;27.676;2023-02-01T13:22:05;97428.28;;;1.85;83.68
64679;BME280;51094;53.864;27.676;2023-02-01T13:25:04;97376.81;;;1.63;83.71
64679;BME280;51094;53.864;27.676;2023-02-01T13:27:37;97401.59;;;1.75;83.23
64679;BME280;51094;53.864;27.676;2023-02-01T13:30:18;97432.78;;;1.82;83.64
64679;BME280;51094;53.864;27.676;2023-02-01T13:33:12;97425.72;;;1.85;83.84
64679;BME280;51094;53.864;27.676;2023-02-01T13:39:12;97417.91;;;1.74;84.16
64679;BME280;51094;53.864;27.676;2023-02-01T13:42:02;97386.38;;;1.47;83.93
64679;BME280;51094;53.864;27.676;2023-02-01T13:44:50;97418.19;;;1.30;84.81
64679;BME280;51094;53.864;27.676;2023-02-01T13:47:34;97354.13;;;1.17;84.14
64679;BME280;51094;53.864;27.676;2023-02-01T13:50:12;97439.06;;;1.51;84.72
64679;BME280;51094;53.864;27.676;2023-02-01T13:52:43;97443.81;;;1.57;84.68
64679;BME280;51094;53.864;27.676;2023-02-01T13:57:49;97399.28;;;1.45;85.26
64679;BME280;51094;53.864;27.676;2023-02-01T14:00:35;97422.38;;;1.58;84.91
64679;BME280;51094;53.864;27.676;2023-02-01T14:03:07;97423.41;;;1.55;85.35
64679;BME280;51094;53.864;27.676;2023-02-01T14:13:38;97425.44;;;1.50;85.20
64679;BME280;51094;53.864;27.676;2023-02-01T14:26:45;97404.75;;;1.26;86.23
64679;BME280;51094;53.864;27.676;2023-02-01T14:32:02;97403.22;;;1.24;86.36
64679;BME280;51094;53.864;27.676;2023-02-01T14:55:44;97291.78;;;0.50;87.22
64679;BME280;51094;53.864;27.676;2023-02-01T15:01:23;97421.97;;;1.24;87.46
64679;BME280;51094;53.864;27.676;2023-02-01T15:06:39;97421.22;;;1.22;88.16
64679;BME280;51094;53.864;27.676;2023-02-01T15:09:31;97347.03;;;0.67;87.76
64679;BME280;51094;53.864;27.676;2023-02-01T15:12:02;97423.97;;;1.19;87.85
64679;BME280;51094;53.864;27.676;2023-02-01T15:14:33;97376.66;;;0.98;88.41
64679;BME280;51094;53.864;27.676;2023-02-01T15:17:00;97426.53;;;1.19;88.48
64679;BME280;51094;53.864;27.676;2023-02-01T15:19:29;97428.47;;;1.16;88.22
64679;BME280;51094;53.864;27.676;2023-02-01T15:21:58;97425.16;;;1.14;88.30
64679;BME280;51094;53.864;27.676;2023-02-01T15:24:27;97318.09;;;0.52;88.95
64679;BME280;51094;53.864;27.676;2023-02-01T15:26:58;97415.50;;;1.05;88.81
64679;BME280;51094;53.864;27.676;2023-02-01T15:29:30;97411.75;;;0.96;88.43
64679;BME280;51094;53.864;27.676;2023-02-01T15:31:59;97395.44;;;0.84;89.46
64679;BME280;51094;53.864;27.676;2023-02-01T15:34:47;97364.84;;;0.54;89.17
64679;BME280;51094;53.864;27.676;2023-02-01T15:37:16;97430.75;;;1.20;89.07
64679;BME280;51094;53.864;27.676;2023-02-01T15:40:04;97428.72;;;1.25;88.91
64679;BME280;51094;53.864;27.676;2023-02-01T15:42:34;97439.25;;;1.21;88.89
64679;BME280;51094;53.864;27.676;2023-02-01T15:45:01;97428.09;;;1.22;89.17
64679;BME280;51094;53.864;27.676;2023-02-01T15:47:30;97352.78;;;0.71;89.26